sensor_id;sensor_type;location;lat;lon;timestamp;temperature;humidity
15916;DHT22;8057;47.830;-3.870;2024-03-02T00:02:56;8.00;99.90
15916;DHT22;8057;47.830;-3.870;2024-03-02T00:07:06;8.00;99.90
15916;DHT22;8057;47.830;-3.870;2024-03-02T00:11:15;8.10;99.90
15916;DHT22;8057;47.830;-3.870;2024-03-02T00:15:36;8.20;99.90
15916;DHT22;8057;47.830;-3.870;2024-03-02T00:19:48;8.20;99.90
15916;DHT22;8057;47.830;-3.870;2024-03-02T00:23:58;8.20;99.90
15916;DHT22;8057;47.830;-3.870;2024-03-02T00:28:10;7.90;99.90
15916;DHT22;8057;47.830;-3.870;2024-03-02T00:32:19;7.90;99.90
15916;DHT22;8057;47.830;-3.870;2024-03-02T00:36:28;8.10;99.90
15916;DHT22;8057;47.830;-3.870;2024-03-02T00:40:38;8.30;99.90
15916;DHT22;8057;47.830;-3.870;2024-03-02T00:44:47;8.40;99.90
15916;DHT22;8057;47.830;-3.870;2024-03-02T00:48:56;8.30;99.90
15916;DHT22;8057;47.830;-3.870;2024-03-02T00:53:05;8.20;99.90
15916;DHT22;8057;47.830;-3.870;2024-03-02T00:57:15;8.10;99.90
15916;DHT22;8057;47.830;-3.870;2024-03-02T01:01:23;8.10;99.90
15916;DHT22;8057;47.830;-3.870;2024-03-02T01:05:32;8.10;99.90
15916;DHT22;8057;47.830;-3.870;2024-03-02T01:09:40;8.10;99.90
15916;DHT22;8057;47.830;-3.870;2024-03-02T01:13:50;8.00;99.90
15916;DHT22;8057;47.830;-3.870;2024-03-02T01:18:00;8.00;99.90
15916;DHT22;8057;47.830;-3.870;2024-03-02T01:22:08;7.90;99.90
15916;DHT22;8057;47.830;-3.870;2024-03-02T01:26:17;7.90;99.90
15916;DHT22;8057;47.830;-3.870;2024-03-02T01:30:27;8.00;99.90
15916;DHT22;8057;47.830;-3.870;2024-03-02T01:34:35;8.10;99.90
15916;DHT22;8057;47.830;-3.870;2024-03-02T01:38:44;8.10;99.90
15916;DHT22;8057;47.830;-3.870;2024-03-02T01:42:53;8.20;99.90
15916;DHT22;8057;47.830;-3.870;2024-03-02T01:47:03;8.30;99.90
15916;DHT22;8057;47.830;-3.870;2024-03-02T01:51:11;8.30;99.90
15916;DHT22;8057;47.830;-3.870;2024-03-02T01:55:20;8.40;99.90
15916;DHT22;8057;47.830;-3.870;2024-03-02T01:59:29;8.40;99.90
15916;DHT22;8057;47.830;-3.870;2024-03-02T02:03:39;8.40;99.90
15916;DHT22;8057;47.830;-3.870;2024-03-02T02:07:48;8.20;99.90
15916;DHT22;8057;47.830;-3.870;2024-03-02T02:11:57;8.00;99.90
15916;DHT22;8057;47.830;-3.870;2024-03-02T02:16:06;7.90;99.90
15916;DHT22;8057;47.830;-3.870;2024-03-02T02:20:17;7.90;99.90
15916;DHT22;8057;47.830;-3.870;2024-03-02T02:24:28;7.80;99.90
15916;DHT22;8057;47.830;-3.870;2024-03-02T02:28:36;7.80;99.90
15916;DHT22;8057;47.830;-3.870;2024-03-02T02:32:45;7.80;99.90
15916;DHT22;8057;47.830;-3.870;2024-03-02T02:36:54;7.90;99.90
15916;DHT22;8057;47.830;-3.870;2024-03-02T02:41:04;7.90;99.90
15916;DHT22;8057;47.830;-3.870;2024-03-02T02:45:13;8.00;99.90
15916;DHT22;8057;47.830;-3.870;2024-03-02T02:49:22;8.10;99.90
15916;DHT22;8057;47.830;-3.870;2024-03-02T02:53:30;8.10;99.90
15916;DHT22;8057;47.830;-3.870;2024-03-02T02:57:40;8.10;99.90
15916;DHT22;8057;47.830;-3.870;2024-03-02T03:01:51;8.10;99.90
15916;DHT22;8057;47.830;-3.870;2024-03-02T03:06:00;8.10;99.90
15916;DHT22;8057;47.830;-3.870;2024-03-02T03:10:09;7.80;99.90
15916;DHT22;8057;47.830;-3.870;2024-03-02T03:14:19;7.60;99.90
15916;DHT22;8057;47.830;-3.870;2024-03-02T03:18:28;7.60;99.90
15916;DHT22;8057;47.830;-3.870;2024-03-02T03:22:36;7.50;99.90
15916;DHT22;8057;47.830;-3.870;2024-03-02T03:26:45;7.50;99.90
15916;DHT22;8057;47.830;-3.870;2024-03-02T03:30:55;7.50;99.90
15916;DHT22;8057;47.830;-3.870;2024-03-02T03:35:03;7.40;99.90
15916;DHT22;8057;47.830;-3.870;2024-03-02T03:39:13;7.40;99.90
15916;DHT22;8057;47.830;-3.870;2024-03-02T03:43:21;7.40;99.90
15916;DHT22;8057;47.830;-3.870;2024-03-02T03:47:32;7.40;99.90
15916;DHT22;8057;47.830;-3.870;2024-03-02T03:51:41;7.30;99.90
15916;DHT22;8057;47.830;-3.870;2024-03-02T03:55:49;7.20;99.90
15916;DHT22;8057;47.830;-3.870;2024-03-02T03:59:58;7.10;99.90
15916;DHT22;8057;47.830;-3.870;2024-03-02T04:04:08;7.10;99.90
15916;DHT22;8057;47.830;-3.870;2024-03-02T04:08:17;7.30;99.90
15916;DHT22;8057;47.830;-3.870;2024-03-02T04:12:25;7.30;99.90
15916;DHT22;8057;47.830;-3.870;2024-03-02T04:16:34;7.30;99.90
15916;DHT22;8057;47.830;-3.870;2024-03-02T04:20:44;7.30;99.90
15916;DHT22;8057;47.830;-3.870;2024-03-02T04:24:52;7.20;99.90
15916;DHT22;8057;47.830;-3.870;2024-03-02T04:29:01;7.20;99.90
15916;DHT22;8057;47.830;-3.870;2024-03-02T04:33:10;7.00;99.90
15916;DHT22;8057;47.830;-3.870;2024-03-02T04:37:20;7.00;99.90
15916;DHT22;8057;47.830;-3.870;2024-03-02T04:41:29;7.20;99.90
15916;DHT22;8057;47.830;-3.870;2024-03-02T04:45:37;7.40;99.90
15916;DHT22;8057;47.830;-3.870;2024-03-02T04:49:46;7.40;99.90
15916;DHT22;8057;47.830;-3.870;2024-03-02T04:53:56;7.40;99.90
15916;DHT22;8057;47.830;-3.870;2024-03-02T04:58:04;7.40;99.90
15916;DHT22;8057;47.830;-3.870;2024-03-02T05:02:13;7.40;99.90
15916;DHT22;8057;47.830;-3.870;2024-03-02T05:06:22;7.40;99.90
15916;DHT22;8057;47.830;-3.870;2024-03-02T05:10:32;7.40;99.90
15916;DHT22;8057;47.830;-3.870;2024-03-02T05:14:40;7.30;99.90
15916;DHT22;8057;47.830;-3.870;2024-03-02T05:18:49;7.20;99.90
15916;DHT22;8057;47.830;-3.870;2024-03-02T05:22:58;7.30;99.90
15916;DHT22;8057;47.830;-3.870;2024-03-02T05:27:07;7.40;99.90
15916;DHT22;8057;47.830;-3.870;2024-03-02T05:31:16;7.20;99.90
15916;DHT22;8057;47.830;-3.870;2024-03-02T05:35:24;7.00;99.90
15916;DHT22;8057;47.830;-3.870;2024-03-02T05:39:33;6.80;99.90
15916;DHT22;8057;47.830;-3.870;2024-03-02T05:43:43;6.70;99.90
15916;DHT22;8057;47.830;-3.870;2024-03-02T05:47:52;6.70;99.90
15916;DHT22;8057;47.830;-3.870;2024-03-02T05:52:00;6.70;99.90
15916;DHT22;8057;47.830;-3.870;2024-03-02T05:56:10;6.70;99.90
15916;DHT22;8057;47.830;-3.870;2024-03-02T06:00:20;6.70;99.90
15916;DHT22;8057;47.830;-3.870;2024-03-02T06:04:29;6.70;99.90
15916;DHT22;8057;47.830;-3.870;2024-03-02T06:08:38;6.70;99.90
15916;DHT22;8057;47.830;-3.870;2024-03-02T06:12:46;6.80;99.90
15916;DHT22;8057;47.830;-3.870;2024-03-02T06:16:56;6.80;99.90
15916;DHT22;8057;47.830;-3.870;2024-03-02T06:21:06;6.80;99.90
15916;DHT22;8057;47.830;-3.870;2024-03-02T06:25:15;6.70;99.90
15916;DHT22;8057;47.830;-3.870;2024-03-02T06:29:23;6.70;99.90
15916;DHT22;8057;47.830;-3.870;2024-03-02T06:33:33;6.70;99.90
15916;DHT22;8057;47.830;-3.870;2024-03-02T06:37:42;6.60;99.90
15916;DHT22;8057;47.830;-3.870;2024-03-02T06:41:50;6.60;99.90
15916;DHT22;8057;47.830;-3.870;2024-03-02T06:45:59;6.60;99.90
15916;DHT22;8057;47.830;-3.870;2024-03-02T06:50:11;6.60;99.90
15916;DHT22;8057;47.830;-3.870;2024-03-02T06:54:20;6.70;99.90
15916;DHT22;8057;47.830;-3.870;2024-03-02T06:58:28;6.70;99.90
15916;DHT22;8057;47.830;-3.870;2024-03-02T07:02:37;6.80;99.90
15916;DHT22;8057;47.830;-3.870;2024-03-02T07:06:50;6.80;99.90
15916;DHT22;8057;47.830;-3.870;2024-03-02T07:10:58;6.70;99.90
15916;DHT22;8057;47.830;-3.870;2024-03-02T07:15:08;6.60;99.90
15916;DHT22;8057;47.830;-3.870;2024-03-02T07:19:32;6.60;99.90
15916;DHT22;8057;47.830;-3.870;2024-03-02T07:23:42;6.60;99.90
15916;DHT22;8057;47.830;-3.870;2024-03-02T07:27:51;6.60;99.90
15916;DHT22;8057;47.830;-3.870;2024-03-02T07:32:00;6.70;99.90
15916;DHT22;8057;47.830;-3.870;2024-03-02T07:36:09;6.80;99.90
15916;DHT22;8057;47.830;-3.870;2024-03-02T07:40:19;6.80;99.90
15916;DHT22;8057;47.830;-3.870;2024-03-02T07:44:28;6.90;99.90
15916;DHT22;8057;47.830;-3.870;2024-03-02T07:48:37;7.10;99.90
15916;DHT22;8057;47.830;-3.870;2024-03-02T07:52:46;7.30;99.90
15916;DHT22;8057;47.830;-3.870;2024-03-02T07:56:56;7.60;99.90
15916;DHT22;8057;47.830;-3.870;2024-03-02T08:01:05;7.80;99.90
15916;DHT22;8057;47.830;-3.870;2024-03-02T08:05:14;7.90;99.90
15916;DHT22;8057;47.830;-3.870;2024-03-02T08:09:23;7.80;99.90
15916;DHT22;8057;47.830;-3.870;2024-03-02T08:13:33;7.70;99.90
15916;DHT22;8057;47.830;-3.870;2024-03-02T08:17:42;7.80;99.90
15916;DHT22;8057;47.830;-3.870;2024-03-02T08:21:56;7.90;99.90
15916;DHT22;8057;47.830;-3.870;2024-03-02T08:26:06;8.00;99.90
15916;DHT22;8057;47.830;-3.870;2024-03-02T08:30:17;8.10;99.90
15916;DHT22;8057;47.830;-3.870;2024-03-02T08:34:26;8.50;99.90
15916;DHT22;8057;47.830;-3.870;2024-03-02T08:38:34;8.20;99.90
15916;DHT22;8057;47.830;-3.870;2024-03-02T08:42:43;7.90;99.90
15916;DHT22;8057;47.830;-3.870;2024-03-02T08:46:54;7.70;99.90
15916;DHT22;8057;47.830;-3.870;2024-03-02T08:51:03;7.60;99.90
15916;DHT22;8057;47.830;-3.870;2024-03-02T08:55:14;7.50;99.90
15916;DHT22;8057;47.830;-3.870;2024-03-02T08:59:23;7.50;99.90
15916;DHT22;8057;47.830;-3.870;2024-03-02T09:03:36;7.50;99.90
15916;DHT22;8057;47.830;-3.870;2024-03-02T09:07:45;7.50;99.90
15916;DHT22;8057;47.830;-3.870;2024-03-02T09:11:53;7.40;99.90
15916;DHT22;8057;47.830;-3.870;2024-03-02T09:16:05;7.60;99.90
15916;DHT22;8057;47.830;-3.870;2024-03-02T09:20:15;7.90;99.90
15916;DHT22;8057;47.830;-3.870;2024-03-02T09:24:24;8.30;99.90
15916;DHT22;8057;47.830;-3.870;2024-03-02T09:28:33;8.60;99.90
15916;DHT22;8057;47.830;-3.870;2024-03-02T09:32:42;8.80;99.90
15916;DHT22;8057;47.830;-3.870;2024-03-02T09:36:54;8.90;99.90
15916;DHT22;8057;47.830;-3.870;2024-03-02T09:41:03;8.90;99.90
15916;DHT22;8057;47.830;-3.870;2024-03-02T09:45:13;9.10;99.90
15916;DHT22;8057;47.830;-3.870;2024-03-02T09:49:22;9.10;99.90
15916;DHT22;8057;47.830;-3.870;2024-03-02T09:53:33;9.10;99.90
15916;DHT22;8057;47.830;-3.870;2024-03-02T09:57:42;9.20;99.90
15916;DHT22;8057;47.830;-3.870;2024-03-02T10:01:57;9.20;99.90
15916;DHT22;8057;47.830;-3.870;2024-03-02T10:06:19;9.30;99.90
15916;DHT22;8057;47.830;-3.870;2024-03-02T10:10:36;9.50;99.90
15916;DHT22;8057;47.830;-3.870;2024-03-02T10:14:47;9.60;99.90
15916;DHT22;8057;47.830;-3.870;2024-03-02T10:18:58;9.60;99.90
15916;DHT22;8057;47.830;-3.870;2024-03-02T10:23:22;9.80;99.90
15916;DHT22;8057;47.830;-3.870;2024-03-02T10:27:33;9.80;99.90
15916;DHT22;8057;47.830;-3.870;2024-03-02T10:31:43;9.90;99.90
15916;DHT22;8057;47.830;-3.870;2024-03-02T10:35:52;10.20;99.90
15916;DHT22;8057;47.830;-3.870;2024-03-02T10:40:04;10.20;99.90
15916;DHT22;8057;47.830;-3.870;2024-03-02T10:44:14;10.40;99.90
15916;DHT22;8057;47.830;-3.870;2024-03-02T10:48:25;10.40;99.90
15916;DHT22;8057;47.830;-3.870;2024-03-02T10:52:34;10.30;99.90
15916;DHT22;8057;47.830;-3.870;2024-03-02T10:56:43;10.50;99.90
15916;DHT22;8057;47.830;-3.870;2024-03-02T11:00:54;10.50;99.90
15916;DHT22;8057;47.830;-3.870;2024-03-02T11:05:04;10.60;99.90
15916;DHT22;8057;47.830;-3.870;2024-03-02T11:09:15;10.60;99.90
15916;DHT22;8057;47.830;-3.870;2024-03-02T11:13:27;10.70;99.90
15916;DHT22;8057;47.830;-3.870;2024-03-02T11:17:45;10.80;99.90
15916;DHT22;8057;47.830;-3.870;2024-03-02T11:21:55;10.90;99.90
15916;DHT22;8057;47.830;-3.870;2024-03-02T11:26:16;11.10;99.90
15916;DHT22;8057;47.830;-3.870;2024-03-02T11:34:51;11.60;99.90
15916;DHT22;8057;47.830;-3.870;2024-03-02T11:39:00;11.60;99.90
15916;DHT22;8057;47.830;-3.870;2024-03-02T11:43:09;11.60;99.90
15916;DHT22;8057;47.830;-3.870;2024-03-02T11:47:19;11.70;99.90
15916;DHT22;8057;47.830;-3.870;2024-03-02T11:51:29;11.90;99.90
15916;DHT22;8057;47.830;-3.870;2024-03-02T11:55:38;11.90;99.90
15916;DHT22;8057;47.830;-3.870;2024-03-02T11:59:48;12.10;99.90
15916;DHT22;8057;47.830;-3.870;2024-03-02T12:03:58;12.10;99.90
15916;DHT22;8057;47.830;-3.870;2024-03-02T12:08:08;12.00;99.90
15916;DHT22;8057;47.830;-3.870;2024-03-02T12:12:17;12.20;99.90
15916;DHT22;8057;47.830;-3.870;2024-03-02T12:16:28;12.40;99.90
15916;DHT22;8057;47.830;-3.870;2024-03-02T12:20:36;12.50;99.90
15916;DHT22;8057;47.830;-3.870;2024-03-02T12:24:46;12.70;99.90
15916;DHT22;8057;47.830;-3.870;2024-03-02T12:28:55;12.50;99.90
15916;DHT22;8057;47.830;-3.870;2024-03-02T12:33:04;12.30;99.90
15916;DHT22;8057;47.830;-3.870;2024-03-02T12:37:13;12.20;99.90
15916;DHT22;8057;47.830;-3.870;2024-03-02T12:41:24;12.50;99.90
15916;DHT22;8057;47.830;-3.870;2024-03-02T12:45:35;12.60;99.90
15916;DHT22;8057;47.830;-3.870;2024-03-02T12:49:44;12.70;99.90
15916;DHT22;8057;47.830;-3.870;2024-03-02T12:53:53;12.70;99.90
15916;DHT22;8057;47.830;-3.870;2024-03-02T12:58:03;12.60;99.90
15916;DHT22;8057;47.830;-3.870;2024-03-02T13:02:16;12.60;99.90
15916;DHT22;8057;47.830;-3.870;2024-03-02T13:06:25;12.40;99.90
15916;DHT22;8057;47.830;-3.870;2024-03-02T13:10:35;12.20;99.90
15916;DHT22;8057;47.830;-3.870;2024-03-02T13:14:47;12.00;99.90
15916;DHT22;8057;47.830;-3.870;2024-03-02T13:18:56;12.20;99.90
15916;DHT22;8057;47.830;-3.870;2024-03-02T13:23:05;12.50;99.90
15916;DHT22;8057;47.830;-3.870;2024-03-02T13:27:14;12.70;99.90
15916;DHT22;8057;47.830;-3.870;2024-03-02T13:31:24;12.70;99.90
15916;DHT22;8057;47.830;-3.870;2024-03-02T13:35:33;12.50;99.90
15916;DHT22;8057;47.830;-3.870;2024-03-02T13:39:42;12.30;99.90
15916;DHT22;8057;47.830;-3.870;2024-03-02T13:43:50;11.90;99.90
15916;DHT22;8057;47.830;-3.870;2024-03-02T13:48:02;11.90;99.90
15916;DHT22;8057;47.830;-3.870;2024-03-02T13:52:11;12.20;99.90
15916;DHT22;8057;47.830;-3.870;2024-03-02T13:56:20;12.30;99.90
15916;DHT22;8057;47.830;-3.870;2024-03-02T14:00:29;12.60;99.90
15916;DHT22;8057;47.830;-3.870;2024-03-02T14:04:39;12.40;99.90
15916;DHT22;8057;47.830;-3.870;2024-03-02T14:08:48;12.10;99.90
15916;DHT22;8057;47.830;-3.870;2024-03-02T14:12:57;11.90;99.90
15916;DHT22;8057;47.830;-3.870;2024-03-02T14:17:06;11.90;99.90
15916;DHT22;8057;47.830;-3.870;2024-03-02T14:21:20;12.00;99.90
15916;DHT22;8057;47.830;-3.870;2024-03-02T14:25:29;11.90;99.90
15916;DHT22;8057;47.830;-3.870;2024-03-02T14:29:41;11.80;99.90
15916;DHT22;8057;47.830;-3.870;2024-03-02T14:33:50;11.60;99.90
15916;DHT22;8057;47.830;-3.870;2024-03-02T14:38:01;11.40;99.90
15916;DHT22;8057;47.830;-3.870;2024-03-02T14:42:10;11.20;99.90
15916;DHT22;8057;47.830;-3.870;2024-03-02T14:46:19;11.20;99.90
15916;DHT22;8057;47.830;-3.870;2024-03-02T14:50:28;11.20;99.90
15916;DHT22;8057;47.830;-3.870;2024-03-02T14:54:38;11.30;99.90
15916;DHT22;8057;47.830;-3.870;2024-03-02T14:58:47;11.10;99.90
15916;DHT22;8057;47.830;-3.870;2024-03-02T15:02:55;10.60;99.90
15916;DHT22;8057;47.830;-3.870;2024-03-02T15:07:04;10.20;99.90
15916;DHT22;8057;47.830;-3.870;2024-03-02T15:11:15;10.10;99.90
15916;DHT22;8057;47.830;-3.870;2024-03-02T15:15:23;10.00;99.90
15916;DHT22;8057;47.830;-3.870;2024-03-02T15:19:32;9.90;99.90
15916;DHT22;8057;47.830;-3.870;2024-03-02T15:23:41;9.80;99.90
15916;DHT22;8057;47.830;-3.870;2024-03-02T15:27:51;9.80;99.90
15916;DHT22;8057;47.830;-3.870;2024-03-02T15:32:00;9.80;99.90
15916;DHT22;8057;47.830;-3.870;2024-03-02T15:36:10;9.90;99.90
15916;DHT22;8057;47.830;-3.870;2024-03-02T15:40:19;10.00;99.90
15916;DHT22;8057;47.830;-3.870;2024-03-02T15:44:29;10.10;99.90
15916;DHT22;8057;47.830;-3.870;2024-03-02T15:48:37;9.90;99.90
15916;DHT22;8057;47.830;-3.870;2024-03-02T15:52:46;9.80;99.90
15916;DHT22;8057;47.830;-3.870;2024-03-02T15:56:55;9.90;99.90
15916;DHT22;8057;47.830;-3.870;2024-03-02T16:01:05;10.00;99.90
15916;DHT22;8057;47.830;-3.870;2024-03-02T16:05:14;9.90;99.90
15916;DHT22;8057;47.830;-3.870;2024-03-02T16:09:24;9.80;99.90
15916;DHT22;8057;47.830;-3.870;2024-03-02T16:13:33;9.80;99.90
15916;DHT22;8057;47.830;-3.870;2024-03-02T16:17:44;9.70;99.90
15916;DHT22;8057;47.830;-3.870;2024-03-02T16:21:53;9.60;99.90
15916;DHT22;8057;47.830;-3.870;2024-03-02T16:26:02;9.60;99.90
15916;DHT22;8057;47.830;-3.870;2024-03-02T16:30:10;9.70;99.90
15916;DHT22;8057;47.830;-3.870;2024-03-02T16:34:21;9.80;99.90
15916;DHT22;8057;47.830;-3.870;2024-03-02T16:38:29;9.90;99.90
15916;DHT22;8057;47.830;-3.870;2024-03-02T16:42:38;9.90;99.90
15916;DHT22;8057;47.830;-3.870;2024-03-02T16:46:47;10.00;99.90
15916;DHT22;8057;47.830;-3.870;2024-03-02T16:50:58;10.00;99.90
15916;DHT22;8057;47.830;-3.870;2024-03-02T16:55:07;9.90;99.90
15916;DHT22;8057;47.830;-3.870;2024-03-02T16:59:16;10.00;99.90
15916;DHT22;8057;47.830;-3.870;2024-03-02T17:03:24;10.10;99.90
15916;DHT22;8057;47.830;-3.870;2024-03-02T17:07:35;10.10;99.90
15916;DHT22;8057;47.830;-3.870;2024-03-02T17:11:43;9.90;99.90
15916;DHT22;8057;47.830;-3.870;2024-03-02T17:15:52;9.70;99.90
15916;DHT22;8057;47.830;-3.870;2024-03-02T17:20:01;9.30;99.90
15916;DHT22;8057;47.830;-3.870;2024-03-02T17:24:13;8.90;99.90
15916;DHT22;8057;47.830;-3.870;2024-03-02T17:28:22;8.70;99.90
15916;DHT22;8057;47.830;-3.870;2024-03-02T17:32:31;8.60;99.90
15916;DHT22;8057;47.830;-3.870;2024-03-02T17:36:40;8.60;99.90
15916;DHT22;8057;47.830;-3.870;2024-03-02T17:40:50;8.50;99.90
15916;DHT22;8057;47.830;-3.870;2024-03-02T17:44:59;8.50;99.90
15916;DHT22;8057;47.830;-3.870;2024-03-02T17:49:08;8.40;99.90
15916;DHT22;8057;47.830;-3.870;2024-03-02T17:53:16;8.30;99.90
15916;DHT22;8057;47.830;-3.870;2024-03-02T17:57:27;8.30;99.90
15916;DHT22;8057;47.830;-3.870;2024-03-02T18:01:35;8.30;99.90
15916;DHT22;8057;47.830;-3.870;2024-03-02T18:05:44;8.30;99.90
15916;DHT22;8057;47.830;-3.870;2024-03-02T18:09:53;8.30;99.90
15916;DHT22;8057;47.830;-3.870;2024-03-02T18:14:09;8.20;99.90
15916;DHT22;8057;47.830;-3.870;2024-03-02T18:18:17;8.00;99.90
15916;DHT22;8057;47.830;-3.870;2024-03-02T18:22:26;7.80;99.90
15916;DHT22;8057;47.830;-3.870;2024-03-02T18:26:35;7.60;99.90
15916;DHT22;8057;47.830;-3.870;2024-03-02T18:30:45;7.50;99.90
15916;DHT22;8057;47.830;-3.870;2024-03-02T18:34:54;7.50;99.90
15916;DHT22;8057;47.830;-3.870;2024-03-02T18:39:02;7.40;99.90
15916;DHT22;8057;47.830;-3.870;2024-03-02T18:43:12;7.40;99.90
15916;DHT22;8057;47.830;-3.870;2024-03-02T18:47:23;7.30;99.90
15916;DHT22;8057;47.830;-3.870;2024-03-02T18:51:31;7.20;99.90
15916;DHT22;8057;47.830;-3.870;2024-03-02T18:55:40;7.20;99.90
15916;DHT22;8057;47.830;-3.870;2024-03-02T18:59:49;7.10;99.90
15916;DHT22;8057;47.830;-3.870;2024-03-02T19:03:59;6.90;99.90
15916;DHT22;8057;47.830;-3.870;2024-03-02T19:08:08;6.80;99.90
15916;DHT22;8057;47.830;-3.870;2024-03-02T19:12:20;6.80;99.90
15916;DHT22;8057;47.830;-3.870;2024-03-02T19:16:30;6.80;99.90
15916;DHT22;8057;47.830;-3.870;2024-03-02T19:20:41;6.70;99.90
15916;DHT22;8057;47.830;-3.870;2024-03-02T19:24:50;6.70;99.90
15916;DHT22;8057;47.830;-3.870;2024-03-02T19:28:59;6.60;99.90
15916;DHT22;8057;47.830;-3.870;2024-03-02T19:33:08;6.60;99.90
15916;DHT22;8057;47.830;-3.870;2024-03-02T19:37:18;6.60;99.90
15916;DHT22;8057;47.830;-3.870;2024-03-02T19:41:27;6.50;99.90
15916;DHT22;8057;47.830;-3.870;2024-03-02T19:45:35;6.40;99.90
15916;DHT22;8057;47.830;-3.870;2024-03-02T19:49:44;6.40;99.90
15916;DHT22;8057;47.830;-3.870;2024-03-02T19:53:54;6.30;99.90
15916;DHT22;8057;47.830;-3.870;2024-03-02T19:58:05;6.20;99.90
15916;DHT22;8057;47.830;-3.870;2024-03-02T20:02:13;6.10;99.90
15916;DHT22;8057;47.830;-3.870;2024-03-02T20:06:24;6.00;99.90
15916;DHT22;8057;47.830;-3.870;2024-03-02T20:10:34;6.00;99.90
15916;DHT22;8057;47.830;-3.870;2024-03-02T20:14:44;5.90;99.90
15916;DHT22;8057;47.830;-3.870;2024-03-02T20:18:52;5.80;99.90
15916;DHT22;8057;47.830;-3.870;2024-03-02T20:23:01;5.80;99.90
15916;DHT22;8057;47.830;-3.870;2024-03-02T20:27:12;5.80;99.90
15916;DHT22;8057;47.830;-3.870;2024-03-02T20:31:21;5.80;99.90
15916;DHT22;8057;47.830;-3.870;2024-03-02T20:35:30;5.70;99.90
15916;DHT22;8057;47.830;-3.870;2024-03-02T20:39:38;5.60;99.90
15916;DHT22;8057;47.830;-3.870;2024-03-02T20:43:49;5.50;99.90
15916;DHT22;8057;47.830;-3.870;2024-03-02T20:47:57;5.40;99.90
15916;DHT22;8057;47.830;-3.870;2024-03-02T20:52:06;5.40;99.90
15916;DHT22;8057;47.830;-3.870;2024-03-02T20:56:15;5.40;99.90
15916;DHT22;8057;47.830;-3.870;2024-03-02T21:00:25;5.40;99.90
15916;DHT22;8057;47.830;-3.870;2024-03-02T21:04:34;5.40;99.90
15916;DHT22;8057;47.830;-3.870;2024-03-02T21:08:43;5.30;99.90
15916;DHT22;8057;47.830;-3.870;2024-03-02T21:12:51;5.20;99.90
15916;DHT22;8057;47.830;-3.870;2024-03-02T21:17:03;5.20;99.90
15916;DHT22;8057;47.830;-3.870;2024-03-02T21:21:12;5.20;99.90
15916;DHT22;8057;47.830;-3.870;2024-03-02T21:25:21;5.20;99.90
15916;DHT22;8057;47.830;-3.870;2024-03-02T21:29:30;5.10;99.90
15916;DHT22;8057;47.830;-3.870;2024-03-02T21:33:43;5.00;99.90
15916;DHT22;8057;47.830;-3.870;2024-03-02T21:38:02;5.10;99.90
15916;DHT22;8057;47.830;-3.870;2024-03-02T21:42:24;5.10;99.90
15916;DHT22;8057;47.830;-3.870;2024-03-02T21:46:33;5.10;99.90
15916;DHT22;8057;47.830;-3.870;2024-03-02T21:50:44;5.10;99.90
15916;DHT22;8057;47.830;-3.870;2024-03-02T21:54:58;5.00;99.90
15916;DHT22;8057;47.830;-3.870;2024-03-02T21:59:10;5.00;99.90
15916;DHT22;8057;47.830;-3.870;2024-03-02T22:03:19;5.00;99.90
15916;DHT22;8057;47.830;-3.870;2024-03-02T22:07:33;5.00;99.90
15916;DHT22;8057;47.830;-3.870;2024-03-02T22:11:45;5.00;99.90
15916;DHT22;8057;47.830;-3.870;2024-03-02T22:15:56;5.10;99.90
15916;DHT22;8057;47.830;-3.870;2024-03-02T22:20:05;5.00;99.90
15916;DHT22;8057;47.830;-3.870;2024-03-02T22:24:24;4.90;99.90
15916;DHT22;8057;47.830;-3.870;2024-03-02T22:28:50;5.00;99.90
15916;DHT22;8057;47.830;-3.870;2024-03-02T22:38:24;5.00;99.90
15916;DHT22;8057;47.830;-3.870;2024-03-02T22:42:34;4.90;99.90
15916;DHT22;8057;47.830;-3.870;2024-03-02T22:46:46;4.90;99.90
15916;DHT22;8057;47.830;-3.870;2024-03-02T22:51:00;4.90;99.90
15916;DHT22;8057;47.830;-3.870;2024-03-02T22:55:29;5.00;99.90
15916;DHT22;8057;47.830;-3.870;2024-03-02T22:59:49;5.00;99.90
15916;DHT22;8057;47.830;-3.870;2024-03-02T23:04:11;4.90;99.90
15916;DHT22;8057;47.830;-3.870;2024-03-02T23:08:23;4.90;99.90
15916;DHT22;8057;47.830;-3.870;2024-03-02T23:12:40;4.90;99.90
15916;DHT22;8057;47.830;-3.870;2024-03-02T23:17:04;4.90;99.90
15916;DHT22;8057;47.830;-3.870;2024-03-02T23:21:54;5.00;99.90
15916;DHT22;8057;47.830;-3.870;2024-03-02T23:25:52;5.10;99.90
15916;DHT22;8057;47.830;-3.870;2024-03-02T23:35:05;5.30;99.90
15916;DHT22;8057;47.830;-3.870;2024-03-02T23:39:14;5.20;99.90
15916;DHT22;8057;47.830;-3.870;2024-03-02T23:43:44;5.20;99.90
15916;DHT22;8057;47.830;-3.870;2024-03-02T23:47:53;5.20;99.90
15916;DHT22;8057;47.830;-3.870;2024-03-02T23:52:03;5.20;99.90
15916;DHT22;8057;47.830;-3.870;2024-03-02T23:56:12;5.10;99.90
